Pembroke, United Kingdom
Current Conditions -  °F | °C
As of 9:50 AM on Friday 19 Dec 2014 (Local Time) from EGOP Reporting Station
Broken Clouds Broken Clouds  
Wind Chill:   Ceiling: 4200
Heat Index:   Visibility: 6mi
Dew Point:   Wind: 16mph
Humidity: 76%   Direction: 290°WNW
Pressure: 30.03"   Gusts: NA
Location:  51.67°N, 4.91°W
Report Text: EGOP 190950Z AUTO 29014KT 9999 // FEW033/// BKN042/// 08/04 Q1017
Loading
Personal Weather Stations






























Interactive Weather Map New forecast layout! Learn more

10-Day Weather Forecast

Advertisements
Track Severe Weather on mobile